Weather History for Newton, IA

Change the Weather History Date:

Monday, February 18, 2013

  Actual Average Record
Temperature  
Mean Temperature 28 °F -  
Max Temperature 42 °F 37 °F 62 °F (1981)
Min Temperature 15 °F 21 °F -9 °F (2006)
Degree Days  
Heating Degree Days 36    
Moisture  
Dew Point 24 °F    
Average Humidity 76    
Maximum Humidity 93    
Minimum Humidity 63    
Precipitation  
Precipitation 0.00 in - - ()
Sea Level Pressure  
Sea Level Pressure 29.67 in    
Wind  
Wind Speed 15 mph (NW)    
Max Wind Speed 30 mph    
Max Gust Speed 39 mph    
Visibility 10 miles    
Events Snow    
Averages and records for this station are not official NWS values.
T = Trace of Precipitation, MM = Missing Value Source: NWS Daily Summary

Daily Weather History Graph

Daily Weather History Graph

Search for Another Location

Airport:

Trip Planner

Search our weather history database for the weather conditions in past years. The results will help you decide how hot, cold, wet, or windy it might be!

Date:

Astronomy

Feb. 18, 2013 Rise Set
Actual Time 7:02 AM CST 5:49 PM CST
Civil Twilight 6:34 AM CST 6:17 PM CST
Nautical Twilight 6:02 AM CST 6:50 PM CST
Astronomical Twilight 5:30 AM CST 7:22 PM CST
Moon 11:33 AM CST (2/18) 1:45 AM CST (2/18)
Length of Visible Light 11h 43m
Length of Day
10h 46m
First Quarter, 58% of the Moon is Illuminated
Feb 18
First Quarter
Feb 25
Full
Mar 4
Last Quarter
Mar 11
New
Mar 19
First Quarter

Hourly Weather History & Observations

Time (CST) Temp. Windchill Dew Point Humidity Pressure Visibility Wind Dir Wind Speed Gust Speed Precip Events Conditions
12:15 AM 32.0 °F 21.2 °F 24.8 °F 75% 29.67 in 10.0 mi SE 16.1 mph - N/A   Clear
12:35 AM 32.0 °F 21.6 °F 24.8 °F 75% 29.66 in 10.0 mi SE 15.0 mph - N/A   Clear
12:55 AM 32.0 °F 22.1 °F 24.8 °F 75% 29.65 in 10.0 mi SE 13.8 mph - N/A   Clear
1:15 AM 32.0 °F 22.1 °F 24.8 °F 75% 29.64 in 10.0 mi SSE 13.8 mph - N/A   Clear
1:35 AM 32.0 °F 22.5 °F 26.6 °F 80% 29.63 in 10.0 mi SE 12.7 mph - N/A   Clear
1:55 AM 32.0 °F 23.0 °F 26.6 °F 80% 29.62 in 10.0 mi SE 11.5 mph - N/A   Clear
2:15 AM 32.0 °F 23.6 °F 26.6 °F 80% 29.62 in 10.0 mi SE 10.4 mph - N/A   Clear
2:35 AM 32.0 °F 23.0 °F 26.6 °F 80% 29.61 in 10.0 mi SE 11.5 mph - N/A   Clear
2:55 AM 32.0 °F 23.0 °F 26.6 °F 80% 29.60 in 10.0 mi SE 11.5 mph - N/A   Clear
3:15 AM 32.0 °F 23.0 °F 26.6 °F 80% 29.59 in 10.0 mi SE 11.5 mph - N/A   Clear
3:35 AM 32.0 °F 23.0 °F 26.6 °F 80% 29.58 in 10.0 mi SE 11.5 mph - N/A   Clear
3:55 AM 32.0 °F 24.2 °F 26.6 °F 80% 29.58 in 10.0 mi SE 9.2 mph - N/A   Clear
4:15 AM 32.0 °F 24.2 °F 26.6 °F 80% 29.57 in 10.0 mi SE 9.2 mph - N/A   Clear
4:35 AM 30.2 °F 23.4 °F 26.6 °F 86% 29.57 in 10.0 mi SE 6.9 mph - N/A   Clear
4:55 AM 30.2 °F 22.6 °F 26.6 °F 86% 29.57 in 10.0 mi SE 8.1 mph - N/A   Clear
5:15 AM 30.2 °F 21.9 °F 26.6 °F 86% 29.57 in 10.0 mi SSE 9.2 mph - N/A   Clear
5:35 AM 30.2 °F 22.6 °F 26.6 °F 86% 29.57 in 10.0 mi SSE 8.1 mph - N/A   Clear
6:15 AM 30.2 °F 24.3 °F 26.6 °F 86% 29.56 in 10.0 mi SE 5.8 mph - N/A   Clear
6:35 AM 32.0 °F - 26.6 °F 80% 29.56 in 10.0 mi Calm Calm - N/A   Clear
6:55 AM 32.0 °F - 26.6 °F 80% 29.56 in 10.0 mi Calm Calm - N/A   Clear
7:15 AM 32.0 °F 27.5 °F 26.6 °F 80% 29.57 in 10.0 mi WNW 4.6 mph - N/A   Clear
7:35 AM 33.8 °F - 28.4 °F 81% 29.57 in 10.0 mi Calm Calm - N/A   Clear
7:55 AM 32.0 °F - 26.6 °F 80% 29.57 in 10.0 mi Calm Calm - N/A   Clear
8:15 AM 35.6 °F - 30.2 °F 81% 29.57 in 10.0 mi Calm Calm - N/A   Clear
8:35 AM 35.6 °F - 30.2 °F 81% 29.57 in 10.0 mi Calm Calm - N/A   Clear
8:55 AM 35.6 °F - 32.0 °F 87% 29.57 in 10.0 mi Calm Calm - N/A   Clear
9:15 AM 37.4 °F 33.8 °F 32.0 °F 81% 29.57 in 10.0 mi SW 4.6 mph - N/A   Clear
9:35 AM 37.4 °F 32.1 °F 30.2 °F 75% 29.57 in 10.0 mi West 6.9 mph - N/A   Clear
9:55 AM 37.4 °F 30.3 °F 30.2 °F 75% 29.57 in 10.0 mi WNW 10.4 mph - N/A   Clear
10:15 AM 39.2 °F 32.0 °F 30.2 °F 70% 29.57 in 10.0 mi NW 11.5 mph - N/A   Clear
10:35 AM 39.2 °F 30.8 °F 32.0 °F 75% 29.58 in 10.0 mi NW 15.0 mph - N/A   Clear
10:55 AM 41.0 °F 33.9 °F 32.0 °F 70% 29.58 in 10.0 mi NNW 12.7 mph - N/A   Clear
11:15 AM 42.8 °F 34.8 °F 32.0 °F 66% 29.58 in 10.0 mi NNW 17.3 mph 24.2 mph N/A   Clear
11:35 AM 42.8 °F 35.1 °F 33.8 °F 70% 29.59 in 10.0 mi NNW 16.1 mph 25.3 mph N/A   Clear
11:55 AM 42.8 °F 34.8 °F 33.8 °F 70% 29.60 in 10.0 mi NW 17.3 mph 24.2 mph N/A   Mostly Cloudy
12:15 PM 41.0 °F 31.6 °F 33.8 °F 76% 29.58 in 10.0 mi NNW 20.7 mph 27.6 mph N/A   Mostly Cloudy
12:35 PM 39.2 °F 29.6 °F 32.0 °F 75% 29.60 in 10.0 mi NW 19.6 mph 32.2 mph N/A   Mostly Cloudy
12:55 PM 39.2 °F 28.5 °F 32.0 °F 75% 29.61 in 9.0 mi NW 24.2 mph - N/A   Overcast
1:15 PM 39.2 °F 28.7 °F 32.0 °F 75% 29.61 in 9.0 mi NW 23.0 mph 31.1 mph N/A   Overcast
1:35 PM 39.2 °F 28.7 °F 32.0 °F 75% 29.61 in 9.0 mi NW 23.0 mph 29.9 mph N/A   Overcast
1:55 PM 39.2 °F 29.8 °F 32.0 °F 75% 29.60 in 9.0 mi NW 18.4 mph 25.3 mph N/A   Overcast
2:15 PM 37.4 °F 25.4 °F 32.0 °F 81% 29.62 in 9.0 mi NNW 27.6 mph 33.4 mph N/A   Overcast
2:35 PM 33.8 °F 21.0 °F 30.2 °F 87% 29.63 in 7.0 mi NW 25.3 mph 35.7 mph N/A   Overcast
2:55 PM 32.0 °F 18.6 °F 26.6 °F 80% 29.64 in 9.0 mi NNW 25.3 mph 34.5 mph N/A   Overcast
3:15 PM 32.0 °F 18.9 °F 28.4 °F 87% 29.65 in 8.0 mi NW 24.2 mph 33.4 mph N/A   Overcast
3:35 PM 30.2 °F 17.4 °F 28.4 °F 93% 29.66 in 1.2 mi NW 20.7 mph - N/A Snow Light Snow
3:55 PM 30.2 °F 15.9 °F 26.6 °F 86% 29.66 in 1.5 mi NW 26.5 mph 33.4 mph N/A   Overcast
4:15 PM 30.2 °F 15.9 °F 23.0 °F 75% 29.67 in 9.0 mi NW 26.5 mph 35.7 mph N/A   Light Freezing Rain
4:35 PM 28.4 °F 14.7 °F 23.0 °F 80% 29.69 in 10.0 mi NW 21.9 mph 35.7 mph N/A   Overcast
4:55 PM 28.4 °F 14.4 °F 21.2 °F 74% 29.71 in 10.0 mi NW 23.0 mph 35.7 mph N/A   Overcast
5:15 PM 28.4 °F 14.1 °F 21.2 °F 74% 29.72 in 10.0 mi NW 24.2 mph 33.4 mph N/A   Overcast
5:35 PM 28.4 °F 14.1 °F 19.4 °F 69% 29.73 in 10.0 mi NW 24.2 mph 34.5 mph N/A   Overcast
5:55 PM 26.6 °F 13.4 °F 19.4 °F 74% 29.74 in 10.0 mi NNW 18.4 mph 29.9 mph N/A   Mostly Cloudy
6:15 PM 26.6 °F 12.0 °F 19.4 °F 74% 29.75 in 10.0 mi NW 23.0 mph 31.1 mph N/A   Overcast
6:35 PM 26.6 °F 10.3 °F 17.6 °F 69% 29.76 in 10.0 mi NNW 29.9 mph 38.0 mph N/A   Overcast
6:55 PM 26.6 °F 11.1 °F 17.6 °F 69% 29.77 in 10.0 mi NW 26.5 mph 35.7 mph N/A   Overcast
7:15 PM 24.8 °F 11.1 °F 17.6 °F 74% 29.79 in 10.0 mi NW 18.4 mph 27.6 mph N/A   Overcast
7:35 PM 24.8 °F 9.6 °F 15.8 °F 69% 29.80 in 10.0 mi NW 23.0 mph 32.2 mph N/A   Overcast
7:55 PM 24.8 °F 10.7 °F 14.0 °F 64% 29.81 in 10.0 mi NW 19.6 mph 39.1 mph N/A   Overcast
8:15 PM 23.0 °F 7.2 °F 14.0 °F 68% 29.81 in 10.0 mi NW 23.0 mph 38.0 mph N/A   Overcast
8:35 PM 21.2 °F 4.9 °F 10.4 °F 63% 29.82 in 10.0 mi NW 23.0 mph 38.0 mph N/A   Overcast
8:55 PM 21.2 °F 4.9 °F 12.2 °F 68% 29.83 in 10.0 mi WNW 23.0 mph 33.4 mph N/A   Overcast
9:15 PM 19.4 °F 1.1 °F 10.4 °F 68% 29.84 in 10.0 mi NW 27.6 mph 35.7 mph N/A Snow Light Snow
9:35 PM 19.4 °F 2.8 °F 10.4 °F 68% 29.85 in 10.0 mi NW 21.9 mph 34.5 mph N/A   Overcast
9:55 PM 19.4 °F 2.8 °F 10.4 °F 68% 29.85 in 10.0 mi WNW 21.9 mph 28.8 mph N/A   Overcast
10:15 PM 19.4 °F 1.1 °F 10.4 °F 68% 29.85 in 10.0 mi WNW 27.6 mph 34.5 mph N/A   Overcast
10:35 PM 17.6 °F -1.0 °F 8.6 °F 68% 29.87 in 10.0 mi WNW 26.5 mph 36.8 mph N/A   Overcast
10:55 PM 17.6 °F 0.1 °F 8.6 °F 68% 29.87 in 10.0 mi WNW 23.0 mph 33.4 mph N/A   Overcast
11:15 PM 17.6 °F 0.1 °F 8.6 °F 68% 29.87 in 10.0 mi WNW 23.0 mph 33.4 mph N/A Snow Light Snow
11:35 PM 15.8 °F -2.7 °F 6.8 °F 68% 29.88 in 10.0 mi WNW 24.2 mph 34.5 mph N/A   Overcast
11:55 PM 15.8 °F -2.7 °F 8.6 °F 73% 29.88 in 10.0 mi WNW 24.2 mph 35.7 mph N/A   Overcast